Strona główna
METAR-TAF:

Lotnisko :

Katowice, Polska

Port lotniczy Katowice-Pyrzowice

Szerokość geograficzna: 50-28-27N, Długość geograficzna: 019-04-48E, wysokość: 284 m

Aktualna obserwacja pogody

Raport powstał 13 minut temu, godzina 08:30 UTC
Wiatr 10 kt od wschód
Temperatura 15°C
Wilgotność 67%
Ciśnienie 1023 hPa
Widzialność 10 km lub więcej
Mało chmury na wysokości 2300 ft

METAR: EPKT 260830Z 10010KT 9999 FEW023 15/09 Q1023

czas: 10:43 (08:43 UTC)

Prognoza

Raport powstał 2 godziny i 43 minut temu, godzina 06:00 UTC
Prognoza ważna od 26 godzina 06 UTC do 27 godzina 06 UTC
Wiatr 4 kt od wschód
Widzialność 10 km lub więcej
Brak chmur poniżej 1500 m i brak chmur cumulonimbus
Przejściowo
od 26 godzina 06 UTC do 26 godzina 07 UTC
Widzialność: 4500 m
zamglenie
Przejściowo
od 27 godzina 00 UTC do 27 godzina 06 UTC
Widzialność: 4000 m
zamglenie

TAF: EPKT 260600Z 2606/2706 09004KT CAVOK TEMPO 2606/2607 4500 BR TEMPO 2700/2706 4000 BR

METAR-TAF

Obserwacja i prognoza pogody dla ponad 4000 lotnisk (raport METAR i TAF).

Dostępne stacje oznaczono żółtymi i czerwonymi punktami na mapie.

Najedź kursorem aby zobaczyć nazwę stacji.

Kliknij aby zobaczyć obserwacje i prognozy pogody.

Aby zmienić mapę: kliknij na zielony przycisk z czarnym krzyżykiem, aby powiększyć; na zielony przycisk z myślnikiem, aby pomniejszyć; na zielone strzałki, aby przejść do map sąsiednich.


METAR-TAF: